createdAt,value
2022-11-08T00:00:56.914Z,27.83
2022-11-08T00:02:31.683Z,27.30
2022-11-08T00:04:07.062Z,25.17
2022-11-08T00:05:57.831Z,30.95
2022-11-08T00:07:48.636Z,31.33
2022-11-08T00:09:39.773Z,22.80
2022-11-08T00:11:30.562Z,27.05
2022-11-08T00:13:24.545Z,22.60
2022-11-08T00:14:58.339Z,25.00
2022-11-08T00:16:30.681Z,25.85
2022-11-08T00:18:05.879Z,29.92
2022-11-08T00:19:38.012Z,32.28
2022-11-08T00:21:11.390Z,34.30
2022-11-08T00:22:44.860Z,33.08
2022-11-08T00:24:17.138Z,32.40
2022-11-08T00:25:54.722Z,36.35
2022-11-08T00:27:29.028Z,33.80
2022-11-08T00:29:02.665Z,31.88
2022-11-08T00:30:36.295Z,35.40
2022-11-08T00:32:13.032Z,35.40
2022-11-08T00:33:47.723Z,37.97
2022-11-08T00:35:20.870Z,39.42
2022-11-08T00:36:54.569Z,31.15
2022-11-08T00:38:27.765Z,35.60
2022-11-08T00:40:01.035Z,34.38
2022-11-08T00:41:34.704Z,35.22
2022-11-08T00:43:07.885Z,36.45
2022-11-08T00:44:41.064Z,28.40
2022-11-08T00:46:14.402Z,32.83
2022-11-08T00:47:47.786Z,33.25
2022-11-08T00:49:22.676Z,33.08
2022-11-08T00:50:55.879Z,34.35
2022-11-08T00:52:29.017Z,36.92
2022-11-08T00:54:02.559Z,33.22
2022-11-08T00:55:35.926Z,34.80
2022-11-08T00:57:09.091Z,35.85
2022-11-08T00:58:43.936Z,34.60
2022-11-08T01:00:17.911Z,32.85
2022-11-08T01:01:51.229Z,36.35
2022-11-08T01:03:24.139Z,35.20
2022-11-08T01:04:58.976Z,35.97
2022-11-08T01:06:31.422Z,35.90
2022-11-08T01:08:04.786Z,33.20
2022-11-08T01:09:38.081Z,37.20
2022-11-08T01:11:13.066Z,34.08
2022-11-08T01:12:46.283Z,31.65
2022-11-08T01:14:19.509Z,32.85
2022-11-08T01:15:51.855Z,34.50
2022-11-08T01:17:25.288Z,36.00
2022-11-08T01:18:59.489Z,32.05
2022-11-08T01:20:34.139Z,37.50
2022-11-08T01:22:07.334Z,37.03
2022-11-08T01:23:41.141Z,38.38
2022-11-08T01:25:14.332Z,34.42
2022-11-08T01:26:47.517Z,40.33
2022-11-08T01:28:20.118Z,41.88
2022-11-08T01:29:54.037Z,37.38
2022-11-08T01:31:29.423Z,38.13
2022-11-08T01:33:02.678Z,34.92
2022-11-08T01:34:36.115Z,40.38
2022-11-08T01:36:12.276Z,40.97
2022-11-08T01:37:45.507Z,42.15
2022-11-08T01:39:18.775Z,39.83
2022-11-08T01:40:50.918Z,35.17
2022-11-08T01:42:29.095Z,37.05
2022-11-08T01:44:02.419Z,45.55
2022-11-08T01:46:18.206Z,37.70
2022-11-08T01:47:51.696Z,31.73
2022-11-08T01:49:41.277Z,39.65
2022-11-08T01:51:18.362Z,37.47
2022-11-08T01:52:55.442Z,34.15
2022-11-08T01:54:33.619Z,38.13
2022-11-08T01:56:08.312Z,34.10
2022-11-08T01:57:48.059Z,35.35
2022-11-08T01:59:20.749Z,26.50
2022-11-08T02:00:54.367Z,35.03
2022-11-08T02:02:29.467Z,33.50
2022-11-08T02:04:03.870Z,30.58
2022-11-08T02:05:37.437Z,34.60
2022-11-08T02:07:13.249Z,36.67
2022-11-08T02:08:46.980Z,34.03
2022-11-08T02:10:23.456Z,39.65
2022-11-08T02:11:57.553Z,35.08
2022-11-08T02:13:33.406Z,26.88
2022-11-08T02:15:07.685Z,27.90
2022-11-08T02:16:39.863Z,31.95
2022-11-08T02:18:15.187Z,32.00
2022-11-08T02:19:51.672Z,29.40
2022-11-08T02:21:29.492Z,35.30
2022-11-08T02:23:14.591Z,33.97
2022-11-08T02:24:49.542Z,28.33
2022-11-08T02:26:26.209Z,37.70
2022-11-08T02:27:59.325Z,39.45
2022-11-08T02:29:34.934Z,37.35
2022-11-08T02:31:10.196Z,37.90
2022-11-08T02:32:43.977Z,31.13
2022-11-08T02:34:16.971Z,32.00
2022-11-08T02:35:55.191Z,34.05
2022-11-08T02:37:29.058Z,34.65
2022-11-08T02:39:02.260Z,37.33
2022-11-08T02:40:48.058Z,37.60
2022-11-08T02:42:21.989Z,32.65
2022-11-08T02:43:55.333Z,33.78
2022-11-08T02:45:28.588Z,29.40
2022-11-08T02:47:02.011Z,36.83
2022-11-08T02:48:34.305Z,35.60
2022-11-08T02:50:08.549Z,29.08
2022-11-08T02:51:40.637Z,30.23
2022-11-08T02:53:13.915Z,28.42
2022-11-08T02:54:47.130Z,35.22
2022-11-08T02:56:20.936Z,41.92
2022-11-08T02:57:54.121Z,32.88
2022-11-08T02:59:27.335Z,31.33
2022-11-08T03:00:59.646Z,36.70
2022-11-08T03:02:33.008Z,26.48
2022-11-08T03:04:06.703Z,35.47
2022-11-08T03:05:39.875Z,31.35
2022-11-08T03:07:13.105Z,32.00
2022-11-08T03:08:45.352Z,29.23
2022-11-08T03:10:19.343Z,36.88
2022-11-08T03:11:53.837Z,34.58
2022-11-08T03:13:27.073Z,36.65
2022-11-08T03:15:00.623Z,30.35
2022-11-08T03:16:33.816Z,36.65
2022-11-08T03:18:07.541Z,35.65
2022-11-08T03:19:40.693Z,35.13
2022-11-08T03:21:13.175Z,30.42
2022-11-08T03:22:46.717Z,29.65
2022-11-08T03:24:19.833Z,31.00
2022-11-08T03:25:53.037Z,92.18
2022-11-08T03:27:27.962Z,123.07
2022-11-08T03:29:01.192Z,40.17
2022-11-08T03:30:33.531Z,33.50
2022-11-08T03:32:06.955Z,37.22
2022-11-08T03:33:39.702Z,42.33
2022-11-08T03:35:12.911Z,39.00
2022-11-08T03:36:46.125Z,36.35
2022-11-08T03:38:18.972Z,49.50
2022-11-08T03:39:53.018Z,42.38
2022-11-08T03:41:26.389Z,33.97
2022-11-08T03:43:01.077Z,41.80
2022-11-08T03:44:34.415Z,40.83
2022-11-08T03:46:08.073Z,31.17
2022-11-08T03:47:42.019Z,33.83
2022-11-08T03:49:15.217Z,28.52
2022-11-08T03:50:47.461Z,33.13
2022-11-08T03:52:20.868Z,28.42
2022-11-08T03:53:54.176Z,29.50
2022-11-08T03:55:29.182Z,31.08
2022-11-08T03:57:02.367Z,36.83
2022-11-08T03:58:37.190Z,35.63
2022-11-08T04:00:11.939Z,25.58
2022-11-08T04:01:45.263Z,32.60
2022-11-08T04:03:18.636Z,35.53
2022-11-08T04:04:52.055Z,29.20
2022-11-08T04:06:25.497Z,32.00
2022-11-08T04:07:58.697Z,34.85
2022-11-08T04:09:31.853Z,95.03
2022-11-08T04:11:19.413Z,85.47
2022-11-08T04:13:10.028Z,34.75
2022-11-08T04:15:02.053Z,30.33
2022-11-08T04:16:35.899Z,34.80
2022-11-08T04:18:26.763Z,39.90
2022-11-08T04:20:13.700Z,32.03
2022-11-08T04:21:49.303Z,33.50
2022-11-08T04:23:22.618Z,33.00
2022-11-08T04:24:55.951Z,34.35
2022-11-08T04:26:29.081Z,32.47
2022-11-08T04:28:01.462Z,32.75
2022-11-08T04:29:34.703Z,30.50
2022-11-08T04:31:12.150Z,32.08
2022-11-08T04:32:45.550Z,46.20
2022-11-08T04:34:18.062Z,245.25
2022-11-08T04:35:52.186Z,31.33
2022-11-08T04:37:25.465Z,31.02
2022-11-08T04:38:58.621Z,30.35
2022-11-08T04:40:31.853Z,32.08
2022-11-08T04:42:05.237Z,34.95
2022-11-08T04:43:38.858Z,39.88
2022-11-08T04:45:12.408Z,33.78
2022-11-08T04:46:47.238Z,35.40
2022-11-08T04:48:19.694Z,36.10
2022-11-08T04:49:54.342Z,37.03
2022-11-08T04:51:29.440Z,38.30
2022-11-08T04:53:03.037Z,42.63
2022-11-08T04:54:36.161Z,35.67
2022-11-08T04:56:11.241Z,33.47
2022-11-08T04:57:44.329Z,33.25
2022-11-08T04:59:17.753Z,34.42
2022-11-08T05:00:50.970Z,30.40
2022-11-08T05:02:25.713Z,30.70
2022-11-08T05:03:59.039Z,33.17
2022-11-08T05:05:32.573Z,34.15
2022-11-08T05:07:05.791Z,34.45
2022-11-08T05:08:39.247Z,33.72
2022-11-08T05:10:11.481Z,33.70
2022-11-08T05:11:44.925Z,28.83
2022-11-08T05:13:18.148Z,34.92
2022-11-08T05:14:51.401Z,40.90
2022-11-08T05:16:26.224Z,38.63
2022-11-08T05:18:01.074Z,38.58
2022-11-08T05:19:51.951Z,38.58
2022-11-08T05:21:43.277Z,32.45
2022-11-08T05:23:25.863Z,31.27
2022-11-08T05:24:59.058Z,31.55
2022-11-08T05:26:35.349Z,36.13
2022-11-08T05:28:08.550Z,30.25
2022-11-08T05:29:42.387Z,35.20
2022-11-08T05:31:16.294Z,37.45
2022-11-08T05:32:51.576Z,31.25
2022-11-08T05:34:26.155Z,35.17
2022-11-08T05:36:05.886Z,37.78
2022-11-08T05:37:42.440Z,46.83
2022-11-08T05:39:15.621Z,41.38
2022-11-08T05:40:48.762Z,37.55
2022-11-08T05:42:22.232Z,30.33
2022-11-08T05:43:56.583Z,36.67
2022-11-08T05:45:29.857Z,35.20
2022-11-08T05:47:03.047Z,37.90
2022-11-08T05:48:36.938Z,30.63
2022-11-08T05:50:14.344Z,34.78
2022-11-08T05:51:51.551Z,39.70
2022-11-08T05:53:24.820Z,35.42
2022-11-08T05:54:58.341Z,44.63
2022-11-08T05:56:31.466Z,50.75
2022-11-08T05:58:04.750Z,32.92
2022-11-08T05:59:36.923Z,40.78
2022-11-08T06:01:12.461Z,34.08
2022-11-08T06:02:45.859Z,37.60
2022-11-08T06:04:19.032Z,35.70
2022-11-08T06:05:53.720Z,44.05
2022-11-08T06:07:27.310Z,40.60
2022-11-08T06:09:00.464Z,35.45
2022-11-08T06:10:33.750Z,34.88
2022-11-08T06:12:07.526Z,37.50
2022-11-08T06:13:41.010Z,157.35
2022-11-08T06:15:14.232Z,95.68
2022-11-08T06:16:47.528Z,47.83
2022-11-08T06:18:20.772Z,50.55
2022-11-08T06:19:54.160Z,46.67
2022-11-08T06:21:28.877Z,47.30
2022-11-08T06:23:02.169Z,43.05
2022-11-08T06:24:35.431Z,40.40
2022-11-08T06:26:09.358Z,37.97
2022-11-08T06:27:42.570Z,38.53
2022-11-08T06:29:16.005Z,32.45
2022-11-08T06:30:49.333Z,36.13
2022-11-08T06:32:22.960Z,31.50
2022-11-08T06:33:56.344Z,40.28
2022-11-08T06:35:29.618Z,30.20
2022-11-08T06:37:04.993Z,36.95
2022-11-08T06:38:38.563Z,37.33
2022-11-08T06:40:12.659Z,39.15
2022-11-08T06:41:45.842Z,38.08
2022-11-08T06:43:20.317Z,34.03
2022-11-08T06:44:53.954Z,36.70
2022-11-08T06:46:27.567Z,39.55
2022-11-08T06:48:03.638Z,35.70
2022-11-08T06:49:37.847Z,39.70
2022-11-08T06:51:11.439Z,47.10
2022-11-08T06:52:46.084Z,44.45
2022-11-08T06:54:24.459Z,38.80
2022-11-08T06:56:00.264Z,38.95
2022-11-08T06:57:34.893Z,37.65
2022-11-08T06:59:08.133Z,42.25
2022-11-08T07:00:41.404Z,44.65
2022-11-08T07:02:14.826Z,46.33
2022-11-08T07:03:48.347Z,40.42
2022-11-08T07:05:21.628Z,46.33
2022-11-08T07:06:54.886Z,47.58
2022-11-08T07:08:29.955Z,39.30
2022-11-08T07:10:04.263Z,40.95
2022-11-08T07:11:37.990Z,43.00
2022-11-08T07:13:13.741Z,44.78
2022-11-08T07:14:46.881Z,51.83
2022-11-08T07:16:20.239Z,51.40
2022-11-08T07:17:53.605Z,48.65
2022-11-08T07:19:26.891Z,48.33
2022-11-08T07:21:01.275Z,45.70
2022-11-08T07:22:34.488Z,46.88
2022-11-08T07:24:09.400Z,48.45
2022-11-08T07:25:42.282Z,44.33
2022-11-08T07:27:15.489Z,50.22
2022-11-08T07:28:48.872Z,55.78
2022-11-08T07:30:22.027Z,54.38
2022-11-08T07:31:55.289Z,61.10
2022-11-08T07:33:28.906Z,45.75
2022-11-08T07:35:02.374Z,54.97
2022-11-08T07:36:35.605Z,57.08
2022-11-08T07:38:08.869Z,58.10
2022-11-08T07:39:43.814Z,54.08
2022-11-08T07:41:17.311Z,48.83
2022-11-08T07:43:10.668Z,53.03
2022-11-08T07:44:44.083Z,49.97
2022-11-08T07:46:17.419Z,42.40
2022-11-08T07:47:58.517Z,49.72
2022-11-08T07:49:31.652Z,63.60
2022-11-08T07:51:04.909Z,53.80
2022-11-08T07:52:38.163Z,53.88
2022-11-08T07:54:11.556Z,62.42
2022-11-08T07:55:48.302Z,62.22
2022-11-08T07:57:21.590Z,52.22
2022-11-08T07:58:54.816Z,51.28
2022-11-08T08:00:28.300Z,51.22
2022-11-08T08:02:01.574Z,47.15
2022-11-08T08:03:34.891Z,50.78
2022-11-08T08:05:08.774Z,60.10
2022-11-08T08:06:42.133Z,53.13
2022-11-08T08:08:15.600Z,51.80
2022-11-08T08:09:50.230Z,51.03
2022-11-08T08:11:27.184Z,61.53
2022-11-08T08:13:05.195Z,57.42
2022-11-08T08:14:38.546Z,58.03
2022-11-08T08:16:12.032Z,56.08
2022-11-08T08:17:45.159Z,53.15
2022-11-08T08:19:25.151Z,51.25
2022-11-08T08:20:58.744Z,54.63
2022-11-08T08:22:32.134Z,63.40
2022-11-08T08:24:05.850Z,61.50
2022-11-08T08:25:40.883Z,57.17
2022-11-08T08:27:15.578Z,53.88
2022-11-08T08:28:49.245Z,54.58
2022-11-08T08:30:23.218Z,50.03
2022-11-08T08:31:57.502Z,57.22
2022-11-08T08:33:30.679Z,52.58
2022-11-08T08:35:04.015Z,54.53
2022-11-08T08:36:37.151Z,55.80
2022-11-08T08:38:12.229Z,53.90
2022-11-08T08:39:45.391Z,62.75
2022-11-08T08:41:30.790Z,56.90
2022-11-08T08:43:13.028Z,55.08
2022-11-08T08:44:53.161Z,57.13
2022-11-08T08:46:26.423Z,58.88
2022-11-08T08:48:00.307Z,57.28
2022-11-08T08:49:33.443Z,58.08
2022-11-08T08:51:07.029Z,57.15
2022-11-08T08:52:40.746Z,51.05
2022-11-08T08:54:15.454Z,53.20
2022-11-08T08:55:52.380Z,55.50
2022-11-08T08:57:25.899Z,48.95
2022-11-08T09:02:47.537Z,47.47
2022-11-08T09:04:20.968Z,47.72
2022-11-08T09:05:54.188Z,48.63
2022-11-08T09:07:27.325Z,53.30
2022-11-08T09:09:00.878Z,44.03
2022-11-08T09:10:34.054Z,47.17
2022-11-08T09:12:11.953Z,58.38
2022-11-08T09:13:47.713Z,49.08
2022-11-08T09:15:23.047Z,53.90
2022-11-08T09:16:57.237Z,52.85
2022-11-08T09:18:30.737Z,55.65
2022-11-08T09:20:04.452Z,52.58
2022-11-08T09:21:37.901Z,54.88
2022-11-08T09:23:11.992Z,52.00
2022-11-08T09:24:45.203Z,45.03
2022-11-08T09:26:18.410Z,56.72
2022-11-08T09:27:52.672Z,57.67
2022-11-08T09:29:26.014Z,49.95
2022-11-08T09:31:03.099Z,47.03
2022-11-08T09:32:59.024Z,51.53
2022-11-08T09:34:30.278Z,51.22
2022-11-08T09:36:04.220Z,49.25
2022-11-08T09:37:37.423Z,47.03
2022-11-08T09:39:10.550Z,51.10
2022-11-08T09:40:55.076Z,42.38
2022-11-08T09:42:46.495Z,40.10
2022-11-08T09:44:35.943Z,47.90
2022-11-08T09:46:12.678Z,45.30
2022-11-08T09:47:52.917Z,39.05
2022-11-08T09:49:33.164Z,44.78
2022-11-08T09:51:11.441Z,43.92
2022-11-08T09:52:50.588Z,42.35
2022-11-08T09:54:29.181Z,43.45
2022-11-08T09:56:07.873Z,36.13
2022-11-08T09:57:52.960Z,44.53
2022-11-08T09:59:33.873Z,39.03
2022-11-08T10:01:07.087Z,54.35
2022-11-08T10:02:41.770Z,45.28
2022-11-08T10:04:17.544Z,30.15
2022-11-08T10:06:10.260Z,37.90
2022-11-08T10:07:51.019Z,40.63
2022-11-08T10:09:43.706Z,36.13
2022-11-08T10:11:38.259Z,37.75
2022-11-08T10:13:20.106Z,40.33
2022-11-08T10:15:13.256Z,32.80
2022-11-08T10:16:55.128Z,33.88
2022-11-08T10:18:40.544Z,36.10
2022-11-08T10:20:27.064Z,42.10
2022-11-08T10:22:05.025Z,37.30
2022-11-08T10:23:45.454Z,43.75
2022-11-08T10:25:24.359Z,33.05
2022-11-08T10:27:00.501Z,34.97
2022-11-08T10:28:38.058Z,38.97
2022-11-08T10:30:20.843Z,36.00
2022-11-08T10:31:59.482Z,35.33
2022-11-08T10:33:39.083Z,35.60
2022-11-08T10:35:22.975Z,37.03
2022-11-08T10:37:04.390Z,36.08
2022-11-08T10:38:43.189Z,32.58
2022-11-08T10:40:26.430Z,36.13
2022-11-08T10:42:05.847Z,30.08
2022-11-08T10:43:43.578Z,27.83
2022-11-08T10:45:17.289Z,34.05
2022-11-08T10:46:53.932Z,33.63
2022-11-08T10:48:27.265Z,32.47
2022-11-08T10:50:04.364Z,34.10
2022-11-08T10:51:38.321Z,35.97
2022-11-08T10:53:18.738Z,41.35
2022-11-08T10:54:54.057Z,35.33
2022-11-08T10:56:27.246Z,31.83
2022-11-08T10:58:01.707Z,31.00
2022-11-08T10:59:35.190Z,28.20
2022-11-08T11:01:17.108Z,35.65
2022-11-08T11:02:53.055Z,31.17
2022-11-08T11:04:28.845Z,34.53
2022-11-08T11:06:05.116Z,31.75
2022-11-08T11:07:38.606Z,31.08
2022-11-08T11:09:20.957Z,30.90
2022-11-08T11:10:54.651Z,28.90
2022-11-08T11:12:28.144Z,31.08
2022-11-08T11:14:11.869Z,30.20
2022-11-08T11:15:51.170Z,27.40
2022-11-08T11:17:32.819Z,34.00
2022-11-08T11:19:16.157Z,36.60
2022-11-08T11:21:08.458Z,33.30
2022-11-08T11:22:47.872Z,30.42
2022-11-08T11:24:22.641Z,26.80
2022-11-08T11:25:55.868Z,26.92
2022-11-08T11:27:32.334Z,30.98
2022-11-08T11:29:25.203Z,32.17
2022-11-08T11:31:03.062Z,30.52
2022-11-08T11:32:35.942Z,30.08
2022-11-08T11:34:37.525Z,38.30
2022-11-08T11:36:16.937Z,26.25
2022-11-08T11:37:50.832Z,24.02
2022-11-08T11:39:30.629Z,33.92
2022-11-08T11:41:10.950Z,31.95
2022-11-08T11:42:54.576Z,27.20
2022-11-08T11:44:32.716Z,33.00
2022-11-08T11:46:14.740Z,24.80
2022-11-08T11:47:53.471Z,26.15
2022-11-08T11:49:30.562Z,27.85
2022-11-08T11:51:04.135Z,28.70
2022-11-08T11:52:38.962Z,26.23
2022-11-08T11:54:15.095Z,29.58
2022-11-08T11:56:14.517Z,30.58
2022-11-08T11:58:02.265Z,28.38
2022-11-08T11:59:55.197Z,38.75
2022-11-08T12:01:46.157Z,33.67
2022-11-08T12:03:37.116Z,31.48
2022-11-08T12:05:28.684Z,49.03
2022-11-08T12:07:08.549Z,33.60
2022-11-08T12:09:00.602Z,47.15
2022-11-08T12:10:50.039Z,36.75
2022-11-08T12:12:45.972Z,37.50
2022-11-08T12:14:37.144Z,45.35
2022-11-08T12:16:19.978Z,36.90
2022-11-08T12:18:07.521Z,26.20
2022-11-08T12:19:52.478Z,21.73
2022-11-08T12:21:33.671Z,24.33
2022-11-08T12:23:22.302Z,26.65
2022-11-08T12:25:06.019Z,22.38
2022-11-08T12:26:45.997Z,23.35
2022-11-08T12:28:42.034Z,21.42
2022-11-08T12:30:20.624Z,26.77
2022-11-08T12:32:22.698Z,25.40
2022-11-08T12:34:14.182Z,30.05
2022-11-08T12:35:59.626Z,26.35
2022-11-08T12:37:43.983Z,25.70
2022-11-08T12:39:28.965Z,29.30
2022-11-08T12:41:13.990Z,23.08
2022-11-08T12:43:05.083Z,24.15
2022-11-08T12:44:58.849Z,23.70
2022-11-08T12:46:38.255Z,25.65
2022-11-08T12:48:24.564Z,24.20
2022-11-08T12:50:11.901Z,23.13
2022-11-08T12:51:58.083Z,22.70
2022-11-08T12:53:50.768Z,21.27
2022-11-08T12:55:28.510Z,26.98
2022-11-08T12:57:07.154Z,38.85
2022-11-08T12:58:44.553Z,29.40
2022-11-08T13:00:19.568Z,24.33
2022-11-08T13:01:53.884Z,24.80
2022-11-08T13:03:53.021Z,30.55
2022-11-08T13:05:31.538Z,23.80
2022-11-08T13:07:13.212Z,20.15
2022-11-08T13:08:56.717Z,21.88
2022-11-08T13:10:39.213Z,17.80
2022-11-08T13:12:25.219Z,26.67
2022-11-08T13:14:00.716Z,22.10
2022-11-08T13:15:33.922Z,19.73
2022-11-08T13:17:19.772Z,29.73
2022-11-08T13:18:54.607Z,21.98
2022-11-08T13:20:46.346Z,19.77
2022-11-08T13:22:45.283Z,20.60
2022-11-08T13:24:44.697Z,20.63
2022-11-08T13:26:23.396Z,25.50
2022-11-08T13:27:58.720Z,26.70
2022-11-08T13:29:33.480Z,24.88
2022-11-08T13:31:28.919Z,22.10
2022-11-08T13:33:11.309Z,25.65
2022-11-08T13:34:51.840Z,26.33
2022-11-08T13:36:36.911Z,23.77
2022-11-08T13:38:25.617Z,31.15
2022-11-08T13:40:17.661Z,26.88
2022-11-08T13:42:05.363Z,30.77
2022-11-08T13:43:40.562Z,24.63
2022-11-08T13:45:33.559Z,26.25
2022-11-08T13:47:45.062Z,24.58
2022-11-08T13:49:24.317Z,28.00
2022-11-08T13:50:58.419Z,27.15
2022-11-08T13:52:46.676Z,18.73
2022-11-08T13:54:53.183Z,27.52
2022-11-08T13:56:51.185Z,28.05
2022-11-08T13:58:37.466Z,24.27
2022-11-08T14:00:36.412Z,30.05
2022-11-08T14:02:34.178Z,25.27
2022-11-08T14:04:25.708Z,23.55
2022-11-08T14:06:02.785Z,23.45
2022-11-08T14:07:43.778Z,25.75
2022-11-08T14:09:30.737Z,23.88
2022-11-08T14:11:35.669Z,31.63
2022-11-08T14:13:19.417Z,41.53
2022-11-08T14:15:05.315Z,23.52
2022-11-08T14:16:49.376Z,21.10
2022-11-08T14:18:27.530Z,33.00
2022-11-08T14:20:18.636Z,28.08
2022-11-08T14:21:55.034Z,30.52
2022-11-08T14:23:31.150Z,38.35
2022-11-08T14:25:15.435Z,27.88
2022-11-08T14:26:49.811Z,25.50
2022-11-08T14:28:25.541Z,26.40
2022-11-08T14:30:02.470Z,26.88
2022-11-08T14:31:36.052Z,21.92
2022-11-08T14:33:18.653Z,26.42
2022-11-08T14:34:52.308Z,32.53
2022-11-08T14:36:27.573Z,35.80
2022-11-08T14:38:01.244Z,37.47
2022-11-08T14:39:37.717Z,35.08
2022-11-08T14:41:17.990Z,25.98
2022-11-08T14:42:51.974Z,28.85
2022-11-08T14:44:26.410Z,32.42
2022-11-08T14:45:59.863Z,31.52
2022-11-08T14:47:37.043Z,32.13
2022-11-08T14:49:19.516Z,29.40
2022-11-08T14:51:00.039Z,31.77
2022-11-08T14:52:34.393Z,30.63
2022-11-08T14:54:17.639Z,23.92
2022-11-08T14:55:57.806Z,38.97
2022-11-08T14:57:33.584Z,28.65
2022-11-08T14:59:08.291Z,29.95
2022-11-08T16:09:09.256Z,34.78
2022-11-08T16:10:46.446Z,37.08
2022-11-08T16:12:19.672Z,49.35
2022-11-08T16:13:53.014Z,45.47
2022-11-08T16:15:27.493Z,35.28
2022-11-08T16:17:00.788Z,40.00
2022-11-08T16:18:34.396Z,28.40
2022-11-08T16:20:19.919Z,29.23
2022-11-08T16:21:53.761Z,24.48
2022-11-08T16:23:27.318Z,34.05
2022-11-08T16:25:00.448Z,27.17
2022-11-08T16:26:35.732Z,34.35
2022-11-08T16:28:19.481Z,31.58
2022-11-08T16:29:52.940Z,29.17
2022-11-08T16:31:26.129Z,33.90
2022-11-08T16:32:59.879Z,37.85
2022-11-08T16:34:33.912Z,43.38
2022-11-08T16:36:15.961Z,36.47
2022-11-08T16:37:50.904Z,41.58
2022-11-08T16:39:26.282Z,41.65
2022-11-08T16:40:59.660Z,40.13
2022-11-08T16:42:34.450Z,53.28
2022-11-08T16:44:07.805Z,59.55
2022-11-08T16:46:04.422Z,42.78
2022-11-08T16:47:35.190Z,49.78
2022-11-08T16:49:16.365Z,48.38
2022-11-08T16:50:49.870Z,43.20
2022-11-08T16:52:23.144Z,38.78
2022-11-08T16:53:56.551Z,42.15
2022-11-08T16:55:30.783Z,44.05
2022-11-08T16:57:28.660Z,42.42
2022-11-08T16:58:59.118Z,43.17
2022-11-08T17:00:32.234Z,40.03
2022-11-08T17:02:05.566Z,35.08
2022-11-08T17:03:38.952Z,35.58
2022-11-08T17:05:18.936Z,46.03
2022-11-08T17:06:52.113Z,49.88
2022-11-08T17:08:25.871Z,46.75
2022-11-08T17:09:59.072Z,62.42
2022-11-08T17:11:33.332Z,42.72
2022-11-08T17:13:06.536Z,35.67
2022-11-08T17:14:41.413Z,38.05
2022-11-08T17:16:14.921Z,39.80
2022-11-08T17:17:49.705Z,38.13
2022-11-08T17:19:26.851Z,36.45
2022-11-08T17:21:29.900Z,34.72
2022-11-08T17:23:00.142Z,30.38
2022-11-08T17:24:33.873Z,35.17
2022-11-08T17:26:08.066Z,44.33
2022-11-08T17:27:42.024Z,38.15
2022-11-08T17:29:15.318Z,32.03
2022-11-08T17:30:49.932Z,33.92
2022-11-08T17:32:23.050Z,33.25
2022-11-08T17:33:56.621Z,60.78
2022-11-08T17:35:30.178Z,43.30
2022-11-08T17:37:03.443Z,40.30
2022-11-08T17:38:37.254Z,38.28
2022-11-08T17:40:12.020Z,50.35
2022-11-08T17:41:45.729Z,41.75
2022-11-08T17:43:20.103Z,45.33
2022-11-08T17:44:54.495Z,41.55
2022-11-08T17:46:30.165Z,51.78
2022-11-08T17:48:03.662Z,53.65
2022-11-08T17:49:42.855Z,54.97
2022-11-08T17:51:17.197Z,47.97
2022-11-08T17:52:54.171Z,51.35
2022-11-08T17:54:27.515Z,58.90
2022-11-08T17:56:02.340Z,53.03
2022-11-08T17:57:35.625Z,62.13
2022-11-08T17:59:09.008Z,64.20
2022-11-08T18:00:42.889Z,70.78
2022-11-08T18:02:17.858Z,76.25
2022-11-08T18:03:51.196Z,176.88
2022-11-08T18:05:24.359Z,188.80
2022-11-08T18:06:58.275Z,126.72
2022-11-08T18:08:33.703Z,124.15
2022-11-08T18:10:09.247Z,99.07
2022-11-08T18:11:47.651Z,96.03
2022-11-08T18:13:21.698Z,118.97
2022-11-08T18:14:55.045Z,194.48
2022-11-08T18:16:29.727Z,138.27
2022-11-08T18:18:04.322Z,210.73
2022-11-08T18:19:37.818Z,125.68
2022-11-08T18:21:11.767Z,76.40
2022-11-08T18:22:44.981Z,42.67
2022-11-08T18:24:18.374Z,39.25
2022-11-08T18:25:53.474Z,34.55
2022-11-08T18:27:26.627Z,37.85
2022-11-08T18:28:59.972Z,37.00
2022-11-08T18:30:34.397Z,53.75
2022-11-08T18:32:07.900Z,38.83
2022-11-08T18:33:43.161Z,39.47
2022-11-08T18:35:16.579Z,33.63
2022-11-08T18:36:49.770Z,56.50
2022-11-08T18:38:24.588Z,62.85
2022-11-08T18:39:57.958Z,70.35
2022-11-08T18:41:33.097Z,39.80
2022-11-08T18:43:06.501Z,46.60
2022-11-08T18:44:40.913Z,36.10
2022-11-08T18:46:16.808Z,36.42
2022-11-08T18:47:50.348Z,38.42
2022-11-08T18:49:25.237Z,39.00
2022-11-08T18:50:58.735Z,41.92
2022-11-08T18:52:31.850Z,39.70
2022-11-08T18:54:05.286Z,47.28
2022-11-08T18:55:38.441Z,43.10
2022-11-08T18:57:12.529Z,38.10
2022-11-08T18:58:46.633Z,39.92
2022-11-08T19:00:20.163Z,54.10
2022-11-08T19:01:53.404Z,42.20
2022-11-08T19:03:27.995Z,45.67
2022-11-08T19:05:02.846Z,49.55
2022-11-08T19:06:36.214Z,44.20
2022-11-08T19:08:09.373Z,37.65
2022-11-08T19:09:42.978Z,38.05
2022-11-08T19:11:20.506Z,53.28
2022-11-08T19:12:53.853Z,70.38
2022-11-08T19:14:27.192Z,78.18
2022-11-08T19:16:03.884Z,66.20
2022-11-08T19:17:37.292Z,68.70
2022-11-08T19:19:10.524Z,57.38
2022-11-08T19:20:45.071Z,35.60
2022-11-08T19:22:18.862Z,36.83
2022-11-08T19:23:53.633Z,38.92
2022-11-08T19:25:26.988Z,45.08
2022-11-08T19:27:00.288Z,38.90
2022-11-08T19:28:35.992Z,52.90
2022-11-08T19:30:09.769Z,52.47
2022-11-08T19:31:45.479Z,39.17
2022-11-08T19:33:18.996Z,37.72
2022-11-08T19:34:52.812Z,45.90
2022-11-08T19:36:29.430Z,55.38
2022-11-08T19:38:02.776Z,56.63
2022-11-08T19:39:36.055Z,60.58
2022-11-08T19:41:12.001Z,55.88
2022-11-08T19:42:45.679Z,56.00
2022-11-08T19:44:18.996Z,53.53
2022-11-08T19:45:55.296Z,55.28
2022-11-08T19:47:28.762Z,63.13
2022-11-08T19:49:03.891Z,65.15
2022-11-08T19:50:37.152Z,60.05
2022-11-08T19:52:11.810Z,55.80
2022-11-08T19:53:45.865Z,59.65
2022-11-08T19:55:19.142Z,56.30
2022-11-08T19:57:07.729Z,58.85
2022-11-08T19:58:41.057Z,66.18
2022-11-08T20:00:18.114Z,73.50
2022-11-08T20:01:51.421Z,75.15
2022-11-08T20:03:24.761Z,63.53
2022-11-08T20:04:57.975Z,44.75
2022-11-08T20:06:32.588Z,39.13
2022-11-08T20:08:08.681Z,42.15
2022-11-08T20:09:42.099Z,38.40
2022-11-08T20:11:17.402Z,42.78
2022-11-08T20:12:51.053Z,38.35
2022-11-08T20:14:24.291Z,39.97
2022-11-08T20:16:08.669Z,46.63
2022-11-08T20:17:42.674Z,38.47
2022-11-08T20:19:18.055Z,33.97
2022-11-08T20:20:51.195Z,39.38
2022-11-08T20:22:24.465Z,34.78
2022-11-08T20:23:59.335Z,30.98
2022-11-08T20:25:34.499Z,29.73
2022-11-08T20:27:07.783Z,34.72
2022-11-08T20:28:41.894Z,31.08
2022-11-08T20:30:15.776Z,35.42
2022-11-08T20:31:52.244Z,32.38
2022-11-08T20:33:25.457Z,35.10
2022-11-08T20:34:58.836Z,29.45
2022-11-08T20:36:35.410Z,35.20
2022-11-08T20:38:09.199Z,39.88
2022-11-08T20:39:43.858Z,45.17
2022-11-08T20:41:18.811Z,44.00
2022-11-08T20:42:51.967Z,35.83
2022-11-08T20:44:25.879Z,36.13
2022-11-08T20:46:02.422Z,35.58
2022-11-08T20:47:35.965Z,33.17
2022-11-08T20:49:09.942Z,30.67
2022-11-08T20:50:43.473Z,29.95
2022-11-08T20:52:22.108Z,35.80
2022-11-08T20:53:55.290Z,32.13
2022-11-08T20:55:29.811Z,26.17
2022-11-08T20:57:03.502Z,32.53
2022-11-08T20:58:37.649Z,30.67
2022-11-08T21:00:13.731Z,31.58
2022-11-08T21:01:47.398Z,30.27
2022-11-08T21:03:21.050Z,31.40
2022-11-08T21:04:54.324Z,25.35
2022-11-08T21:06:30.066Z,32.33
2022-11-08T21:08:57.984Z,36.08
2022-11-08T21:10:35.905Z,29.65
2022-11-08T21:11:56.729Z,33.40
2022-11-08T21:13:33.276Z,35.58
2022-11-08T21:15:07.166Z,33.38
2022-11-08T21:17:14.601Z,31.50
2022-11-08T21:18:37.648Z,35.15
2022-11-08T21:20:12.999Z,37.35
2022-11-08T21:21:47.339Z,26.67
2022-11-08T21:23:20.913Z,36.58
2022-11-08T21:24:54.066Z,30.33
2022-11-08T21:26:27.673Z,32.30
2022-11-08T21:28:02.270Z,31.88
2022-11-08T21:29:35.780Z,34.75
2022-11-08T21:31:10.761Z,39.03
2022-11-08T21:32:44.263Z,34.38
2022-11-08T21:34:17.679Z,33.63
2022-11-08T21:35:51.376Z,40.72
2022-11-08T21:37:24.786Z,38.58
2022-11-08T21:38:58.108Z,38.65
2022-11-08T21:40:31.342Z,38.97
2022-11-08T21:42:04.838Z,43.03
2022-11-08T21:43:43.052Z,47.22
2022-11-08T21:45:16.615Z,49.92
2022-11-08T21:46:49.745Z,48.90
2022-11-08T21:48:23.530Z,48.30
2022-11-08T21:49:56.699Z,44.33
2022-11-08T21:51:31.585Z,42.42
2022-11-08T21:53:06.185Z,40.60
2022-11-08T21:54:40.486Z,37.30
2022-11-08T21:56:13.795Z,44.67
2022-11-08T21:57:47.376Z,41.40
2022-11-08T21:59:22.067Z,37.97